Frankville, Alabama
Current Conditions -  °F | °C
As of 2:35 PM on Thursday 18 Dec 2014 (Local Time) from KDYA Reporting Station
Broken Clouds Broken Clouds  
Wind Chill: 54°   Ceiling: 4000
Heat Index: 54°   Visibility: 10mi
Dew Point: 32°   Wind: 0mph
Humidity: 44%   Direction: NA
Pressure: 30.15"   Gusts: NA
Location:  31.65°N, 88.15°W
Report Text: KDYA 182035Z AUTO 00000KT 10SM BKN040 BKN065 12/00 A3015 RMK AO2 T01200000
Loading
Personal Weather Stations






























Interactive Weather Map New forecast layout! Learn more

10-Day Weather Forecast

Advertisements
Track Severe Weather on mobile